Time;durP1;ratioP1;P1;durP2;ratioP2;P2;SDS_P1;SDS_P2;PMS_P1;PMS_P2;Temp;Humidity;BMP_temperature;BMP_pressure;BME280_temperature;BME280_humidity;BME280_pressure;Samples;Min_cycle;Max_cycle;Signal;HPM_P1;HPM_P2
2022/10/17 00:00:53;;;;;;;;;9.00;7.00;;;;;17.68;72.58;99790.81;5053112;28;48120;-58
2022/10/17 00:03:18;;;;;;;;;8.75;8.00;;;;;17.67;72.31;99787.28;5054370;28;45327;-59
2022/10/17 00:05:46;;;;;;;;;10.25;8.50;;;;;17.65;71.56;99793.66;5054704;28;45406;-59
2022/10/17 00:08:13;;;;;;;;;7.75;7.25;;;;;17.62;71.65;99794.66;5054308;28;45463;-58
2022/10/17 00:10:39;;;;;;;;;7.00;7.00;;;;;17.61;71.26;99805.41;5054331;28;45401;-59
2022/10/17 00:13:05;;;;;;;;;7.00;6.80;;;;;17.61;70.24;99802.75;5054255;28;45372;-59
2022/10/17 00:15:31;;;;;;;;;7.25;5.00;;;;;17.57;69.86;99794.09;5055969;28;45443;-58
2022/10/17 00:17:57;;;;;;;;;5.50;5.00;;;;;17.55;69.51;99798.63;5057371;28;45375;-58
2022/10/17 00:20:23;;;;;;;;;5.75;5.75;;;;;17.52;68.94;99812.16;5057750;28;45392;-60
2022/10/17 00:22:48;;;;;;;;;7.75;6.00;;;;;17.51;69.71;99807.75;5057674;28;45330;-58
2022/10/17 00:25:14;;;;;;;;;3.50;2.00;;;;;17.48;69.12;99813.25;5058218;28;45432;-58
2022/10/17 00:27:40;;;;;;;;;5.75;5.75;;;;;17.45;68.90;99808.09;5057430;28;45368;-58
2022/10/17 00:30:09;;;;;;;;;5.00;5.00;;;;;17.43;68.72;99816.19;5057511;28;45466;-59
2022/10/17 00:32:35;;;;;;;;;5.20;5.20;;;;;17.42;69.13;99806.50;5057236;28;45381;-58
2022/10/17 00:35:01;;;;;;;;;7.50;5.25;;;;;17.41;68.76;99811.91;5057591;28;45706;-58
2022/10/17 00:37:26;;;;;;;;;5.50;4.75;;;;;17.40;68.71;99823.50;5057536;28;45478;-58
2022/10/17 00:39:52;;;;;;;;;5.25;5.00;;;;;17.39;69.17;99824.47;5057554;28;45431;-59
2022/10/17 00:42:18;;;;;;;;;5.80;5.80;;;;;17.39;68.41;99822.66;5057458;28;45426;-58
2022/10/17 00:44:46;;;;;;;;;5.25;5.25;;;;;17.38;68.66;99828.06;5057651;28;45369;-59
2022/10/17 00:47:16;;;;;;;;;7.25;7.00;;;;;17.38;68.23;99826.25;5056961;28;45441;-58
2022/10/17 00:49:41;;;;;;;;;4.75;4.75;;;;;17.36;68.14;99830.81;5057465;28;46425;-59
2022/10/17 00:52:23;;;;;;;;;5.75;5.75;;;;;17.36;68.29;99832.63;5057595;28;45463;-58
2022/10/17 00:54:53;;;;;;;;;7.25;6.75;;;;;17.34;68.36;99832.72;5057663;28;45369;-58
2022/10/17 00:57:19;;;;;;;;;8.50;7.50;;;;;17.32;68.63;99826.59;5057091;28;45371;-58
2022/10/17 00:59:50;;;;;;;;;4.00;4.00;;;;;17.30;69.66;99824.97;5057237;28;45398;-58
2022/10/17 01:02:18;;;;;;;;;8.20;7.00;;;;;17.24;69.65;99818.19;5056458;28;45638;-58
2022/10/17 01:04:47;;;;;;;;;5.75;5.75;;;;;17.23;69.84;99827.13;5057059;28;45444;-58
2022/10/17 01:07:12;;;;;;;;;8.25;6.25;;;;;17.21;69.60;99823.69;5056354;28;45458;-58
2022/10/17 01:09:40;;;;;;;;;8.00;7.25;;;;;17.22;69.79;99825.41;5057046;28;46128;-59
2022/10/17 01:12:08;;;;;;;;;5.00;5.00;;;;;17.21;69.80;99821.03;5056819;28;45456;-58
2022/10/17 01:14:33;;;;;;;;;9.75;5.50;;;;;17.20;69.83;99827.31;5072592;28;45462;-58
2022/10/17 01:17:11;;;;;;;;;6.25;5.25;;;;;17.20;70.07;99831.75;5072243;28;45399;-58
2022/10/17 01:20:02;;;;;;;;;7.50;6.50;;;;;17.18;70.39;99834.50;5056869;28;46317;-59
2022/10/17 01:22:45;;;;;;;;;8.60;6.20;;;;;17.16;69.81;99832.88;5056874;28;45452;-58
2022/10/17 01:25:52;;;;;;;;;5.50;5.50;;;;;17.12;70.01;99828.66;5056777;28;45627;-59
2022/10/17 01:28:44;;;;;;;;;5.50;5.50;;;;;17.08;70.06;99836.84;5020322;28;45412;-59
2022/10/17 01:31:14;;;;;;;;;5.00;4.00;;;;;17.06;70.67;99838.72;5033663;28;46323;-58
2022/10/17 01:34:02;;;;;;;;;7.00;5.80;;;;;17.05;70.98;99850.31;5049664;28;45472;-59
2022/10/17 01:36:45;;;;;;;;;5.75;3.75;;;;;17.02;71.30;99850.50;5056885;28;45495;-58
2022/10/17 01:39:30;;;;;;;;;6.25;3.75;;;;;16.93;71.42;99850.97;5054602;28;45422;-58
2022/10/17 01:42:09;;;;;;;;;6.50;6.50;;;;;16.87;73.11;99848.66;5047403;28;48453;-59
2022/10/17 01:44:46;;;;;;;;;7.50;7.50;;;;;16.82;73.59;99848.03;5072009;27;45457;-58
2022/10/17 01:47:19;;;;;;;;;7.25;7.00;;;;;16.79;73.83;99845.53;5056471;28;45441;-59
2022/10/17 01:49:47;;;;;;;;;5.50;4.25;;;;;16.78;73.55;99851.81;5056684;28;45507;-59
2022/10/17 01:52:18;;;;;;;;;9.00;7.50;;;;;16.77;74.32;99851.88;5056100;28;45404;-59
2022/10/17 01:54:55;;;;;;;;;7.80;7.80;;;;;16.72;74.80;99854.81;5056471;28;45432;-59
2022/10/17 01:57:35;;;;;;;;;8.00;8.00;;;;;16.69;75.08;99842.53;5056394;28;45420;-58
2022/10/17 02:00:05;;;;;;;;;7.50;7.50;;;;;16.69;74.42;99847.00;5056068;28;45575;-58
2022/10/17 02:02:32;;;;;;;;;8.75;8.75;;;;;16.69;74.89;99844.31;5055823;28;46470;-59
2022/10/17 02:05:00;;;;;;;;;8.80;8.80;;;;;16.68;75.71;99853.25;5056053;28;45605;-58
2022/10/17 02:07:26;;;;;;;;;7.50;7.00;;;;;16.65;75.58;99848.09;5056402;28;45574;-59
2022/10/17 02:09:51;;;;;;;;;7.75;7.75;;;;;16.62;75.41;99842.88;5056252;28;45342;-59
2022/10/17 02:12:38;;;;;;;;;10.00;8.50;;;;;16.58;75.32;99834.22;5054626;28;46996;-59
2022/10/17 02:15:13;;;;;;;;;8.75;7.75;;;;;16.58;75.37;99836.88;5071602;27;45313;-58
2022/10/17 02:17:48;;;;;;;;;7.50;7.50;;;;;16.58;75.24;99841.34;5056011;28;45449;-58
2022/10/17 02:20:34;;;;;;;;;7.00;7.00;;;;;16.55;74.80;99833.53;5054882;28;45539;-59
2022/10/17 02:23:55;;;;;;;;;7.00;6.50;;;;;16.53;74.93;99838.94;5055006;28;45695;-59
2022/10/17 02:26:53;;;;;;;;;6.60;6.00;;;;;16.51;73.99;99837.28;5017343;28;45502;-58
2022/10/17 02:29:25;;;;;;;;;5.50;5.50;;;;;16.51;73.35;99839.94;5054655;28;45400;-59
2022/10/17 02:31:59;;;;;;;;;3.00;3.00;;;;;16.51;73.04;99831.97;5055724;28;45453;-59
2022/10/17 02:34:34;;;;;;;;;5.75;4.00;;;;;16.49;73.91;99837.38;5055871;28;47408;-59
2022/10/17 02:37:05;;;;;;;;;7.20;6.40;;;;;16.47;73.49;99849.03;5055821;28;45348;-59
2022/10/17 02:39:33;;;;;;;;;7.50;7.00;;;;;16.42;74.89;99839.47;5055395;28;45382;-58
2022/10/17 02:42:03;;;;;;;;;6.25;6.25;;;;;16.37;74.96;99841.53;5055565;28;45400;-59
2022/10/17 02:44:30;;;;;;;;;6.75;5.50;;;;;16.34;74.70;99847.00;5053797;28;46557;-59
2022/10/17 02:47:06;;;;;;;;;6.80;4.80;;;;;16.33;75.48;99837.31;5054791;28;45511;-59
2022/10/17 02:49:38;;;;;;;;;9.25;9.00;;;;;16.34;76.10;99838.16;5035706;28;45381;-59
2022/10/17 02:52:13;;;;;;;;;7.25;6.00;;;;;16.31;75.70;99839.19;5050263;28;45369;-59
2022/10/17 02:54:44;;;;;;;;;5.50;5.25;;;;;16.28;75.57;99843.78;5055722;28;46578;-59
2022/10/17 02:57:18;;;;;;;;;5.20;5.20;;;;;16.25;75.65;99842.19;5070570;27;45372;-58
2022/10/17 02:59:44;;;;;;;;;6.50;6.00;;;;;16.21;74.86;99835.28;5054237;28;45418;-59
2022/10/17 03:02:10;;;;;;;;;5.00;5.00;;;;;16.18;75.57;99846.09;5054634;28;45433;-59
2022/10/17 03:04:37;;;;;;;;;7.00;6.25;;;;;16.19;75.18;99836.31;5055150;28;45431;-58
2022/10/17 03:07:02;;;;;;;;;8.20;7.00;;;;;16.17;75.99;99844.38;5055040;28;45432;-58
2022/10/17 03:09:27;;;;;;;;;9.00;7.50;;;;;16.16;76.05;99847.09;5055455;28;45431;-59
2022/10/17 03:11:53;;;;;;;;;12.00;8.25;;;;;16.12;76.77;99846.38;5055200;28;45381;-59
2022/10/17 03:14:18;;;;;;;;;6.75;5.75;;;;;16.10;76.39;99858.03;5049985;28;46664;-59
2022/10/17 03:16:44;;;;;;;;;7.75;7.00;;;;;16.09;76.46;99861.66;5052373;28;45477;-59
2022/10/17 03:19:09;;;;;;;;;7.25;7.25;;;;;16.08;76.41;99859.94;5054044;28;45425;-59
2022/10/17 03:21:38;;;;;;;;;6.00;6.00;;;;;16.03;75.97;99852.19;5055073;28;45357;-58
2022/10/17 03:24:04;;;;;;;;;4.25;4.25;;;;;16.01;76.26;99859.38;5054796;28;46146;-59
2022/10/17 03:26:29;;;;;;;;;9.25;9.25;;;;;16.00;76.47;99860.31;5054380;28;45376;-59
2022/10/17 03:28:55;;;;;;;;;6.75;6.75;;;;;16.00;76.06;99866.50;5054898;28;45411;-59
2022/10/17 03:31:21;;;;;;;;;10.75;7.50;;;;;15.99;76.32;99869.22;5054512;28;45382;-59
2022/10/17 03:33:47;;;;;;;;;8.50;8.00;;;;;15.98;76.10;99859.53;5054901;28;45466;-59
2022/10/17 03:36:15;;;;;;;;;8.00;6.00;;;;;15.97;75.67;99868.44;5053209;28;45452;-58
2022/10/17 03:38:42;;;;;;;;;10.25;8.25;;;;;15.94;75.70;99872.13;5055147;28;45540;-58
2022/10/17 03:41:07;;;;;;;;;7.25;6.75;;;;;15.93;75.63;99861.56;5054355;28;45337;-59
2022/10/17 03:43:33;;;;;;;;;10.50;9.00;;;;;15.92;75.45;99871.31;5054747;28;45900;-59
2022/10/17 03:45:59;;;;;;;;;11.00;7.50;;;;;15.91;75.79;99877.63;5054130;28;45391;-58
2022/10/17 03:48:26;;;;;;;;;10.00;9.50;;;;;15.89;76.02;99871.50;5054912;28;45298;-59
2022/10/17 03:50:51;;;;;;;;;8.75;8.75;;;;;15.88;75.79;99880.41;5053325;28;45413;-59
2022/10/17 03:53:17;;;;;;;;;7.75;7.00;;;;;15.87;76.24;99880.50;5069942;27;45904;-59
2022/10/17 03:55:42;;;;;;;;;8.50;8.50;;;;;15.85;75.95;99871.72;5054210;28;45355;-59
2022/10/17 03:58:08;;;;;;;;;7.00;7.00;;;;;15.86;76.45;99881.44;5054848;28;45404;-59
2022/10/17 04:00:35;;;;;;;;;11.75;9.25;;;;;15.87;75.75;99872.53;5054480;28;45415;-59
2022/10/17 04:03:00;;;;;;;;;11.50;10.50;;;;;15.86;75.66;99881.44;5054016;28;45423;-59
2022/10/17 04:05:25;;;;;;;;;15.00;12.00;;;;;15.83;75.91;99874.47;5054531;28;45313;-59
2022/10/17 04:07:51;;;;;;;;;13.75;12.00;;;;;15.82;75.87;99885.16;5055202;28;45712;-59
2022/10/17 04:10:16;;;;;;;;;12.25;9.50;;;;;15.80;76.00;99887.03;5054445;28;45337;-59
2022/10/17 04:12:42;;;;;;;;;13.50;11.50;;;;;15.79;76.29;99891.50;5054774;28;46107;-59
2022/10/17 04:15:08;;;;;;;;;10.00;10.00;;;;;15.79;76.55;99895.94;5054080;28;45184;-59
2022/10/17 04:17:33;;;;;;;;;14.25;12.50;;;;;15.77;76.54;99893.34;5054120;28;45338;-59
2022/10/17 04:19:58;;;;;;;;;12.75;11.50;;;;;15.77;76.17;99893.34;5054163;28;45369;-59
2022/10/17 04:22:24;;;;;;;;;13.75;13.50;;;;;15.76;76.26;99902.28;5054018;28;46328;-59
2022/10/17 04:24:49;;;;;;;;;14.50;13.50;;;;;15.76;76.13;99912.03;5053761;28;45361;-59
2022/10/17 04:27:15;;;;;;;;;13.50;13.50;;;;;15.75;76.43;99911.22;5053359;28;45448;-59
2022/10/17 04:29:40;;;;;;;;;18.50;17.25;;;;;15.75;76.02;99910.34;5054037;28;45298;-58
2022/10/17 04:32:06;;;;;;;;;22.75;21.75;;;;;15.73;76.25;99917.53;5053750;28;46806;-59
2022/10/17 04:34:31;;;;;;;;;27.50;21.50;;;;;15.67;76.87;99918.69;5053874;28;45436;-59
2022/10/17 04:36:57;;;;;;;;;17.75;17.75;;;;;15.65;76.53;99924.06;5053930;28;45358;-59
2022/10/17 04:39:22;;;;;;;;;14.75;13.00;;;;;15.61;77.44;99919.81;5069647;28;45695;-59
2022/10/17 04:41:48;;;;;;;;;11.50;11.50;;;;;15.57;77.55;99923.59;5053933;28;46360;-59
2022/10/17 04:44:13;;;;;;;;;10.75;8.75;;;;;15.56;78.87;99923.66;5053838;28;45357;-59
2022/10/17 04:46:38;;;;;;;;;8.75;8.25;;;;;15.54;79.55;99929.00;5053178;28;45393;-59
2022/10/17 04:49:04;;;;;;;;;13.00;13.00;;;;;15.53;79.87;99931.75;5052132;28;46020;-59
2022/10/17 04:51:29;;;;;;;;;12.25;11.75;;;;;15.51;80.32;99926.50;5051669;28;47964;-59
2022/10/17 04:53:55;;;;;;;;;11.00;9.75;;;;;15.48;79.93;99929.28;5052032;28;45491;-59
2022/10/17 04:56:22;;;;;;;;;14.25;12.75;;;;;15.48;80.50;99928.44;5053741;28;46040;-59
2022/10/17 04:58:48;;;;;;;;;16.25;13.00;;;;;15.45;79.57;99929.44;5053280;28;45607;-59
2022/10/17 05:01:17;;;;;;;;;17.50;15.00;;;;;15.41;80.24;99938.50;5053819;28;45400;-59
2022/10/17 05:03:43;;;;;;;;;18.50;18.00;;;;;15.39;80.14;99928.88;5056299;28;45286;-59
2022/10/17 05:06:23;;;;;;;;;28.00;23.33;;;;;15.35;79.67;99942.31;5056980;28;45436;-59
2022/10/17 05:08:48;;;;;;;;;29.67;27.33;;;;;15.35;80.09;99946.75;5056562;28;45337;-59
2022/10/17 05:11:34;;;;;;;;;34.67;31.67;;;;;15.35;79.62;99949.41;5056237;28;45440;-59
2022/10/17 05:14:01;;;;;;;;;25.33;21.67;;;;;15.36;79.50;99945.81;5055144;28;45409;-59
2022/10/17 05:16:28;;;;;;;;;29.00;24.33;;;;;15.37;79.15;99939.56;5056001;28;45480;-59
2022/10/17 05:18:55;;;;;;;;;28.00;23.75;;;;;15.38;79.33;99943.09;5056806;28;45416;-59
2022/10/17 05:21:23;;;;;;;;;28.00;24.00;;;;;15.38;79.57;99938.66;5055951;28;45809;-59
2022/10/17 05:23:48;;;;;;;;;20.25;20.25;;;;;15.40;78.85;99941.22;5056322;28;45292;-59
2022/10/17 05:26:14;;;;;;;;;26.25;23.75;;;;;15.41;79.16;99948.28;5054919;28;45468;-60
2022/10/17 05:28:40;;;;;;;;;22.50;21.25;;;;;15.44;78.95;99953.41;5056069;28;45641;-60
2022/10/17 05:31:07;;;;;;;;;27.33;25.67;;;;;15.44;79.14;99948.97;5055370;28;46138;-59
2022/10/17 05:33:33;;;;;;;;;36.33;29.67;;;;;15.45;78.89;99955.16;5055925;28;45448;-60
2022/10/17 05:35:58;;;;;;;;;36.00;33.00;;;;;15.46;78.82;99963.03;5056178;28;45407;-59
2022/10/17 05:38:24;;;;;;;;;30.67;28.67;;;;;15.45;78.80;99961.31;5056056;28;45366;-59
2022/10/17 05:40:50;;;;;;;;;25.00;24.00;;;;;15.45;78.73;99961.31;5055497;28;45477;-59
2022/10/17 05:43:15;;;;;;;;;30.75;27.25;;;;;15.44;78.59;99964.91;5055989;28;45406;-59
2022/10/17 05:45:41;;;;;;;;;25.67;25.67;;;;;15.43;78.30;99962.31;5056209;28;45387;-60
2022/10/17 05:48:07;;;;;;;;;26.50;20.25;;;;;15.40;79.05;99967.81;5055209;28;45536;-59
2022/10/17 05:50:33;;;;;;;;;17.50;16.50;;;;;15.38;78.71;99957.25;5055344;28;46310;-59
2022/10/17 05:52:59;;;;;;;;;14.00;14.00;;;;;15.38;78.71;99965.22;5053806;28;45349;-59
2022/10/17 05:55:24;;;;;;;;;14.50;12.25;;;;;15.37;78.68;99960.84;5068162;28;45518;-60
2022/10/17 05:57:51;;;;;;;;;11.75;11.75;;;;;15.38;78.48;99964.34;5053730;28;45522;-60
2022/10/17 06:00:17;;;;;;;;;14.25;11.75;;;;;15.38;78.58;99967.88;5052522;28;45497;-59
2022/10/17 06:02:44;;;;;;;;;16.00;14.25;;;;;15.39;78.34;99980.22;5053193;28;45447;-59
2022/10/17 06:05:10;;;;;;;;;15.50;14.00;;;;;15.42;77.85;99987.16;5053254;28;45429;-60
2022/10/17 06:07:36;;;;;;;;;13.00;13.00;;;;;15.43;78.50;99989.75;5052473;28;45462;-60
2022/10/17 06:10:01;;;;;;;;;13.25;10.75;;;;;15.43;78.84;99988.91;5054890;28;45400;-60
2022/10/17 06:12:26;;;;;;;;;10.50;10.50;;;;;15.43;79.04;99997.72;5054997;28;45291;-60
2022/10/17 06:14:52;;;;;;;;;13.00;12.75;;;;;15.46;78.83;100002.03;5055555;28;45698;-59
2022/10/17 06:17:17;;;;;;;;;14.00;13.00;;;;;15.47;79.66;100004.63;5053411;28;45416;-59
2022/10/17 06:19:43;;;;;;;;;11.75;11.75;;;;;15.48;79.38;100009.03;5055063;28;45430;-60
2022/10/17 06:22:09;;;;;;;;;13.75;13.50;;;;;15.49;79.50;100013.41;5054888;28;45754;-60
2022/10/17 06:24:34;;;;;;;;;16.25;14.00;;;;;15.52;79.97;100013.25;5054907;28;45506;-60
2022/10/17 06:26:59;;;;;;;;;12.25;9.50;;;;;15.52;80.39;100015.94;5055103;28;45302;-59
2022/10/17 06:29:25;;;;;;;;;12.50;11.75;;;;;15.53;79.86;100022.97;5055384;28;46464;-60
2022/10/17 06:31:50;;;;;;;;;15.75;14.50;;;;;15.54;79.64;100026.50;5053619;28;45378;-60
2022/10/17 06:34:16;;;;;;;;;13.00;12.00;;;;;15.55;79.50;100026.44;5055352;28;45373;-59
2022/10/17 06:36:41;;;;;;;;;13.50;11.75;;;;;15.59;79.22;100029.81;5054490;28;45340;-60
2022/10/17 06:39:07;;;;;;;;;14.50;13.00;;;;;15.62;78.95;100038.50;5054770;28;46128;-60
2022/10/17 06:41:32;;;;;;;;;13.00;11.75;;;;;15.65;78.18;100041.03;5055149;28;45373;-60
2022/10/17 06:43:57;;;;;;;;;10.75;10.50;;;;;15.69;78.13;100047.06;5055355;28;45448;-62
2022/10/17 06:46:25;;;;;;;;;14.25;12.25;;;;;15.73;77.66;100056.66;5054869;28;45416;-59
2022/10/17 06:48:51;;;;;;;;;11.50;11.00;;;;;15.76;77.92;100051.16;5054738;28;45645;-60
2022/10/17 06:51:17;;;;;;;;;14.25;14.25;;;;;15.80;77.84;100058.06;5070777;28;45342;-60
2022/10/17 06:53:42;;;;;;;;;14.50;13.50;;;;;15.85;77.60;100058.72;5054990;28;45369;-59
2022/10/17 06:56:09;;;;;;;;;14.75;13.50;;;;;15.91;77.20;100065.56;5055114;28;45367;-60
2022/10/17 06:58:39;;;;;;;;;16.75;13.50;;;;;15.97;77.46;100067.91;5070460;28;46867;-59
2022/10/17 07:01:09;;;;;;;;;13.50;13.00;;;;;16.03;77.40;100072.97;5054560;28;45356;-59
2022/10/17 07:03:35;;;;;;;;;17.00;13.50;;;;;16.08;76.73;100073.63;5054932;28;45491;-60
2022/10/17 07:06:00;;;;;;;;;12.25;11.50;;;;;16.12;76.71;100077.84;5054128;28;45525;-60
2022/10/17 07:08:26;;;;;;;;;15.00;13.75;;;;;16.17;76.27;100080.28;5053117;28;48089;-60
2022/10/17 07:10:52;;;;;;;;;13.25;13.25;;;;;16.21;76.24;100081.88;5053922;28;45475;-60
2022/10/17 07:13:18;;;;;;;;;13.75;12.00;;;;;16.25;75.58;100091.44;5053398;28;45464;-60
2022/10/17 07:15:45;;;;;;;;;15.50;12.25;;;;;16.28;75.72;100088.59;5054639;28;45459;-59
2022/10/17 07:18:10;;;;;;;;;12.50;12.50;;;;;16.31;75.50;100096.44;5053343;28;45737;-59
2022/10/17 07:20:36;;;;;;;;;12.50;11.75;;;;;16.32;75.10;100101.69;5054894;28;45479;-60
2022/10/17 07:23:01;;;;;;;;;13.00;10.75;;;;;16.35;74.70;100100.69;5054572;28;45444;-60
2022/10/17 07:25:27;;;;;;;;;10.75;10.75;;;;;16.36;74.64;100100.63;5053908;28;45400;-60
2022/10/17 07:27:52;;;;;;;;;15.75;14.25;;;;;16.40;74.85;100090.69;5052843;28;45578;-60
2022/10/17 07:30:19;;;;;;;;;12.00;12.00;;;;;16.45;74.50;100104.63;5054836;28;45377;-60
2022/10/17 07:32:45;;;;;;;;;13.50;13.00;;;;;16.50;74.17;100107.06;5054734;28;45410;-60
2022/10/17 07:35:11;;;;;;;;;12.75;10.50;;;;;16.55;73.62;100110.38;5054707;28;45575;-60
2022/10/17 07:37:37;;;;;;;;;12.75;10.75;;;;;16.59;73.52;100112.78;5054234;28;46246;-60
2022/10/17 07:40:05;;;;;;;;;10.75;9.00;;;;;16.62;73.59;100115.31;5054778;28;45451;-60
2022/10/17 07:42:31;;;;;;;;;18.00;17.00;;;;;16.67;73.11;100117.78;5070155;28;45377;-60
2022/10/17 07:44:56;;;;;;;;;12.00;11.00;;;;;16.71;72.96;100122.03;5054059;28;45554;-60
2022/10/17 07:47:21;;;;;;;;;9.75;8.25;;;;;16.76;72.62;100125.31;5053259;28;45452;-60
2022/10/17 07:49:47;;;;;;;;;9.00;8.75;;;;;16.78;72.70;100128.75;5053253;28;45438;-60
2022/10/17 07:52:13;;;;;;;;;12.50;11.50;;;;;16.83;72.35;100129.41;5054445;28;45416;-60
2022/10/17 07:54:39;;;;;;;;;9.75;9.75;;;;;16.88;72.46;100122.06;5054514;28;45410;-59
2022/10/17 07:57:06;;;;;;;;;9.25;7.00;;;;;16.94;72.74;100129.72;5054247;28;46364;-59
2022/10/17 07:59:32;;;;;;;;;11.80;9.80;;;;;17.01;72.66;100123.16;5054340;28;45366;-59
2022/10/17 08:01:58;;;;;;;;;11.00;10.25;;;;;17.08;72.00;100124.59;5053560;28;45303;-59
2022/10/17 08:04:24;;;;;;;;;11.50;10.50;;;;;17.16;72.16;100131.31;5053930;28;45423;-59
2022/10/17 08:06:50;;;;;;;;;12.25;10.25;;;;;17.23;71.91;100122.94;5048843;28;45700;-59
2022/10/17 08:09:15;;;;;;;;;12.25;9.50;;;;;17.31;71.45;100125.19;5042820;28;45547;-59
2022/10/17 08:11:44;;;;;;;;;10.00;6.50;;;;;17.37;71.47;100123.09;5048004;28;45653;-59
2022/10/17 08:14:11;;;;;;;;;11.50;10.25;;;;;17.44;71.35;100116.47;5052840;28;45499;-58
2022/10/17 08:16:36;;;;;;;;;10.25;8.50;;;;;17.53;70.89;100111.63;5053208;28;45487;-59
2022/10/17 08:19:03;;;;;;;;;11.00;9.75;;;;;17.59;70.78;100104.16;5053335;28;45190;-59
2022/10/17 08:21:28;;;;;;;;;13.75;10.25;;;;;17.65;70.56;100114.53;5053764;28;45360;-59
2022/10/17 08:23:54;;;;;;;;;10.75;8.50;;;;;17.75;70.56;100121.13;5053727;28;45538;-59
2022/10/17 08:26:20;;;;;;;;;10.75;8.50;;;;;17.82;70.50;100110.94;5047293;28;46031;-59
2022/10/17 08:28:45;;;;;;;;;13.25;9.25;;;;;17.88;70.40;100115.97;5052205;28;45444;-59
2022/10/17 08:31:14;;;;;;;;;13.25;10.00;;;;;17.94;69.88;100110.28;5051571;28;45435;-59
2022/10/17 08:33:41;;;;;;;;;10.75;10.75;;;;;18.02;69.76;100116.06;5053628;28;45361;-59
2022/10/17 08:36:08;;;;;;;;;13.00;13.00;;;;;18.09;69.07;100103.28;5044409;28;46561;-59
2022/10/17 08:38:34;;;;;;;;;13.60;12.60;;;;;18.14;69.15;100117.19;5054120;28;45493;-60
2022/10/17 08:41:05;;;;;;;;;14.75;13.00;;;;;18.20;68.95;100116.88;5056941;28;45381;-59
2022/10/17 08:43:44;;;;;;;;;15.50;13.25;;;;;18.26;68.27;100115.69;5056798;28;45404;-59
2022/10/17 08:46:11;;;;;;;;;11.50;11.50;;;;;18.31;67.49;100116.25;5041011;28;46561;-59
2022/10/17 08:48:43;;;;;;;;;10.20;10.20;;;;;18.36;67.43;100120.41;5055797;28;45448;-60
2022/10/17 08:51:30;;;;;;;;;16.00;14.00;;;;;18.44;66.97;100111.94;5050029;28;45677;-59
2022/10/17 08:54:05;;;;;;;;;13.75;11.00;;;;;18.49;66.81;100101.88;5056728;28;45413;-59
2022/10/17 08:56:40;;;;;;;;;12.75;12.75;;;;;18.53;66.59;100103.44;5055201;28;46597;-59
2022/10/17 08:59:15;;;;;;;;;10.40;9.20;;;;;18.58;66.96;100103.19;5053134;28;45573;-59
2022/10/17 09:01:49;;;;;;;;;9.25;9.25;;;;;18.64;66.40;100110.84;5056192;28;45482;-59
2022/10/17 09:04:25;;;;;;;;;11.50;11.00;;;;;18.68;66.24;100109.72;5056354;28;45332;-59
2022/10/17 09:07:16;;;;;;;;;10.50;9.25;;;;;18.71;66.01;100098.88;5055673;28;45554;-60
2022/10/17 09:10:20;;;;;;;;;8.80;8.40;;;;;18.73;65.70;100100.50;5055794;28;45431;-60
2022/10/17 09:12:51;;;;;;;;;8.50;7.75;;;;;18.74;65.12;100096.91;5055708;28;45486;-60
2022/10/17 09:15:34;;;;;;;;;6.00;5.25;;;;;18.78;65.30;100102.91;5042315;28;45448;-60
2022/10/17 09:18:12;;;;;;;;;9.00;7.50;;;;;18.82;65.74;100093.75;5056171;28;46506;-60
2022/10/17 09:21:00;;;;;;;;;8.80;7.20;;;;;18.90;65.19;100085.31;5056286;28;45415;-60
2022/10/17 09:23:46;;;;;;;;;10.75;10.75;;;;;18.94;65.13;100085.00;5061408;27;45520;-60
2022/10/17 09:26:12;;;;;;;;;9.25;9.25;;;;;19.00;65.07;100079.31;5083878;27;45435;-60
2022/10/17 09:28:40;;;;;;;;;1.75;1.75;;;;;19.06;65.59;100084.31;5056042;28;45624;-60
2022/10/17 09:31:28;;;;;;;;;6.00;6.00;;;;;19.13;65.31;100074.09;5055191;28;45356;-60
2022/10/17 09:33:56;;;;;;;;;13.25;10.75;;;;;19.23;65.62;100074.41;5055663;28;45372;-60
2022/10/17 09:36:36;;;;;;;;;13.50;11.75;;;;;19.31;65.35;100080.16;5055252;28;45259;-60
2022/10/17 09:39:12;;;;;;;;;11.00;10.25;;;;;19.40;65.37;100084.94;5053635;28;48118;-60
2022/10/17 09:41:49;;;;;;;;;9.80;8.00;;;;;19.47;65.59;100078.25;5055091;28;45436;-60
2022/10/17 09:44:15;;;;;;;;;9.40;9.40;;;;;19.55;65.68;100086.72;5055457;28;45382;-61
2022/10/17 09:46:48;;;;;;;;;9.50;9.00;;;;;19.61;65.73;100089.00;5055141;28;45431;-60
2022/10/17 09:49:18;;;;;;;;;10.25;10.25;;;;;19.68;65.02;100081.47;5054577;28;45899;-61
2022/10/17 09:51:44;;;;;;;;;12.20;10.40;;;;;19.71;65.26;100074.09;5055247;28;45439;-60
2022/10/17 09:54:22;;;;;;;;;7.75;6.75;;;;;19.74;65.20;100081.09;5055604;28;45435;-60
2022/10/17 09:57:02;;;;;;;;;10.75;9.75;;;;;19.75;65.26;100078.31;5055762;28;45372;-61
2022/10/17 09:59:34;;;;;;;;;8.75;8.75;;;;;19.76;64.99;100072.00;5055047;28;45558;-59
2022/10/17 10:02:11;;;;;;;;;10.20;8.80;;;;;19.80;65.22;100065.50;5054738;28;45351;-59
2022/10/17 10:04:57;;;;;;;;;12.50;12.25;;;;;19.87;65.16;100063.31;5055236;28;45513;-59
2022/10/17 10:07:29;;;;;;;;;12.50;9.25;;;;;19.92;64.72;100071.03;5054592;28;45439;-58
2022/10/17 10:09:55;;;;;;;;;10.00;7.20;;;;;19.94;64.14;100056.59;5054864;28;46503;-59
2022/10/17 10:12:30;;;;;;;;;10.80;10.00;;;;;19.97;64.27;100071.59;5054351;28;45428;-59
2022/10/17 10:14:56;;;;;;;;;11.25;8.50;;;;;19.99;63.79;100061.66;5054795;28;45432;-61
2022/10/17 10:17:28;;;;;;;;;12.25;10.75;;;;;19.99;63.97;100065.19;5069933;28;45426;-59
2022/10/17 10:19:53;;;;;;;;;15.40;11.00;;;;;20.02;63.33;100064.13;5054712;28;45502;-60
2022/10/17 10:22:24;;;;;;;;;10.00;10.00;;;;;20.03;64.28;100068.53;5053080;28;45371;-60
2022/10/17 10:25:11;;;;;;;;;11.75;11.25;;;;;20.03;64.66;100076.56;5054186;28;45577;-60
2022/10/17 10:27:39;;;;;;;;;11.25;10.00;;;;;20.02;65.11;100056.09;5054864;28;45365;-60
2022/10/17 10:30:06;;;;;;;;;10.00;9.25;;;;;19.98;65.50;100062.59;5054906;28;45407;-60
2022/10/17 10:32:34;;;;;;;;;13.20;11.60;;;;;19.96;66.28;100064.50;5054331;28;45435;-60
2022/10/17 10:35:06;;;;;;;;;10.25;9.25;;;;;19.96;66.70;100060.03;5055361;28;45467;-60
2022/10/17 10:37:38;;;;;;;;;14.75;11.00;;;;;19.98;66.06;100066.13;5054616;28;45474;-60
2022/10/17 10:40:06;;;;;;;;;11.00;10.00;;;;;20.03;66.32;100055.16;5047374;28;45425;-60
2022/10/17 10:42:38;;;;;;;;;12.80;11.40;;;;;20.07;66.72;100056.69;5054619;28;45449;-61
2022/10/17 10:45:24;;;;;;;;;14.50;14.50;;;;;20.15;67.30;100060.56;5054584;28;45484;-61
2022/10/17 10:47:58;;;;;;;;;5.25;5.00;;;;;20.24;66.14;100059.13;5042915;28;45533;-60
2022/10/17 10:50:33;;;;;;;;;14.00;11.00;;;;;20.30;66.46;100056.03;5054343;28;46124;-60
2022/10/17 10:53:04;;;;;;;;;9.00;9.00;;;;;20.37;65.57;100052.03;5053717;28;45433;-60
2022/10/17 10:55:35;;;;;;;;;9.25;8.00;;;;;20.45;65.40;100052.38;5054816;28;45474;-58
2022/10/17 10:58:11;;;;;;;;;8.00;8.00;;;;;20.56;65.61;100043.66;5052936;27;45564;-60
2022/10/17 11:00:37;;;;;;;;;11.00;8.00;;;;;20.68;65.19;100047.31;5053562;28;45396;-60
2022/10/17 11:03:23;;;;;;;;;6.60;6.60;;;;;20.78;64.62;100053.81;5052627;28;45922;-60
2022/10/17 11:05:54;;;;;;;;;9.50;8.50;;;;;20.92;64.80;100044.81;5052129;28;45495;-60
2022/10/17 11:08:28;;;;;;;;;7.25;6.75;;;;;21.01;64.55;100037.00;5056410;28;45456;-61
2022/10/17 11:11:22;;;;;;;;;6.20;6.20;;;;;21.14;64.43;100027.13;5054102;28;45525;-60
2022/10/17 11:13:57;;;;;;;;;7.00;7.00;;;;;21.30;64.31;100031.47;5053449;28;45383;-60
2022/10/17 11:16:43;;;;;;;;;9.60;8.60;;;;;21.42;63.11;100026.13;5053250;28;45523;-60
2022/10/17 11:19:34;;;;;;;;;6.50;6.00;;;;;21.53;61.82;100014.63;5053500;28;45420;-60
2022/10/17 11:22:22;;;;;;;;;7.75;7.75;;;;;21.66;61.22;100026.19;5057462;28;45689;-59
2022/10/17 11:25:18;;;;;;;;;6.20;6.20;;;;;21.75;61.43;100022.88;5053403;28;45462;-60
2022/10/17 11:27:44;;;;;;;;;9.25;8.25;;;;;21.85;60.75;100021.22;5053342;28;45621;-59
2022/10/17 11:30:16;;;;;;;;;7.00;7.00;;;;;21.94;59.56;100015.22;5053760;28;45387;-59
2022/10/17 11:32:47;;;;;;;;;6.20;6.20;;;;;22.02;58.48;100008.44;5051079;28;45500;-60
2022/10/17 11:35:13;;;;;;;;;9.80;6.20;;;;;22.07;57.75;100007.13;5052941;28;45785;-60